createdAt,value
2019-03-29T00:00:09.000Z,27.7
2019-03-29T00:01:09.000Z,27.7
2019-03-29T00:02:53.000Z,27.7
2019-03-29T00:04:09.000Z,27.7
2019-03-29T00:05:09.000Z,27.8
2019-03-29T00:06:09.000Z,27.8
2019-03-29T00:08:09.000Z,27.8
2019-03-29T00:09:54.000Z,27.9
2019-03-29T00:11:09.000Z,27.9
2019-03-29T00:12:09.000Z,27.9
2019-03-29T00:13:09.000Z,27.9
2019-03-29T00:14:09.000Z,27.9
2019-03-29T00:16:09.000Z,28
2019-03-29T00:17:53.000Z,27.9
2019-03-29T00:19:09.000Z,27.8
2019-03-29T00:20:09.000Z,27.8
2019-03-29T00:22:09.000Z,27.7
2019-03-29T00:23:54.000Z,27.7
2019-03-29T00:25:09.000Z,27.6
2019-03-29T00:26:09.000Z,27.6
2019-03-29T00:28:09.000Z,27.6
2019-03-29T00:29:54.000Z,27.5
2019-03-29T00:31:09.000Z,27.4
2019-03-29T00:32:09.000Z,27.4
2019-03-29T00:33:09.000Z,27.5
2019-03-29T00:34:09.000Z,27.5
2019-03-29T00:36:09.000Z,27.6
2019-03-29T00:37:08.000Z,27.6
2019-03-29T00:39:08.000Z,27.6
2019-03-29T00:40:08.000Z,27.6
2019-03-29T00:42:08.000Z,27.7
2019-03-29T00:43:08.000Z,27.7
2019-03-29T00:45:08.000Z,27.7
2019-03-29T00:47:08.000Z,27.7
2019-03-29T00:49:08.000Z,27.7
2019-03-29T00:50:08.000Z,27.7
2019-03-29T00:52:08.000Z,27.7
2019-03-29T00:54:08.000Z,27.7
2019-03-29T00:56:08.000Z,27.6
2019-03-29T00:57:08.000Z,27.6
2019-03-29T00:59:08.000Z,27.7
2019-03-29T01:01:08.000Z,27.7
2019-03-29T01:03:08.000Z,27.6
2019-03-29T01:04:53.000Z,27.5
2019-03-29T01:06:08.000Z,27.4
2019-03-29T01:07:08.000Z,27.4
2019-03-29T01:09:08.000Z,27.4
2019-03-29T01:10:08.000Z,27.4
2019-03-29T01:12:08.000Z,27.5
2019-03-29T01:13:08.000Z,27.6
2019-03-29T01:14:08.000Z,27.6
2019-03-29T01:16:08.000Z,27.7
2019-03-29T01:17:08.000Z,27.7
2019-03-29T01:19:08.000Z,27.7
2019-03-29T01:21:08.000Z,27.6
2019-03-29T01:22:08.000Z,27.6
2019-03-29T01:24:08.000Z,27.7
2019-03-29T01:26:08.000Z,27.7
2019-03-29T01:28:08.000Z,27.7
2019-03-29T01:30:08.000Z,27.7
2019-03-29T01:31:08.000Z,27.7
2019-03-29T01:33:08.000Z,27.7
2019-03-29T01:35:08.000Z,27.7
2019-03-29T01:37:08.000Z,27.6
2019-03-29T01:38:08.000Z,27.7
2019-03-29T01:40:08.000Z,27.6
2019-03-29T01:41:09.000Z,27.6
2019-03-29T01:43:08.000Z,27.7
2019-03-29T01:45:08.000Z,27.6
2019-03-29T01:46:08.000Z,27.6
2019-03-29T01:47:54.000Z,27.6
2019-03-29T01:50:08.000Z,27.4
2019-03-29T01:51:08.000Z,27.4
2019-03-29T01:52:08.000Z,27.4
2019-03-29T01:54:08.000Z,27.5
2019-03-29T01:56:08.000Z,27.5
2019-03-29T01:57:08.000Z,27.5
2019-03-29T01:59:08.000Z,27.6
2019-03-29T02:00:08.000Z,27.6
2019-03-29T02:01:08.000Z,27.7
2019-03-29T02:03:08.000Z,27.7
2019-03-29T02:04:08.000Z,27.7
2019-03-29T02:06:08.000Z,27.7
2019-03-29T02:07:09.000Z,27.7
2019-03-29T02:09:08.000Z,27.8
2019-03-29T02:10:08.000Z,27.7
2019-03-29T02:11:54.000Z,27.7
2019-03-29T02:13:08.000Z,27.7
2019-03-29T02:15:08.000Z,27.6
2019-03-29T02:16:08.000Z,27.6
2019-03-29T02:17:53.000Z,27.6
2019-03-29T02:19:08.000Z,27.6
2019-03-29T02:21:08.000Z,27.6
2019-03-29T02:22:09.000Z,27.6
2019-03-29T02:24:08.000Z,27.6
2019-03-29T02:25:09.000Z,27.6
2019-03-29T02:27:08.000Z,27.6
2019-03-29T02:28:53.000Z,27.6
2019-03-29T02:30:08.000Z,27.5
2019-03-29T02:31:08.000Z,27.5
2019-03-29T02:33:08.000Z,27.4
2019-03-29T02:34:09.000Z,27.4
2019-03-29T02:36:09.000Z,27.4
2019-03-29T02:37:54.000Z,27.5
2019-03-29T02:38:55.000Z,27.4
2019-03-29T02:41:08.000Z,27.2
2019-03-29T02:42:08.000Z,27.1
2019-03-29T02:44:09.000Z,27.2
2019-03-29T02:46:09.000Z,27.2
2019-03-29T02:48:09.000Z,27.2
2019-03-29T02:49:09.000Z,27.2
2019-03-29T02:51:09.000Z,27.2
2019-03-29T02:53:09.000Z,27.2
2019-03-29T02:55:09.000Z,27.3
2019-03-29T02:57:09.000Z,27.3
2019-03-29T02:59:09.000Z,27.3
2019-03-29T03:00:09.000Z,27.3
2019-03-29T03:01:09.000Z,27.3
2019-03-29T03:02:09.000Z,27.4
2019-03-29T03:04:09.000Z,27.4
2019-03-29T03:05:09.000Z,27.4
2019-03-29T03:07:09.000Z,27.5
2019-03-29T03:08:54.000Z,27.4
2019-03-29T03:10:09.000Z,27.3
2019-03-29T03:11:09.000Z,27.3
2019-03-29T03:12:09.000Z,27.3
2019-03-29T03:14:09.000Z,27.4
2019-03-29T03:16:09.000Z,27.4
2019-03-29T03:18:09.000Z,27.4
2019-03-29T03:19:09.000Z,27.4
2019-03-29T03:20:09.000Z,27.4
2019-03-29T03:22:09.000Z,27.4
2019-03-29T03:23:09.000Z,27.3
2019-03-29T03:25:09.000Z,27.4
2019-03-29T03:27:09.000Z,27.4
2019-03-29T03:28:09.000Z,27.4
2019-03-29T03:30:09.000Z,27.5
2019-03-29T03:32:09.000Z,27.4
2019-03-29T03:34:09.000Z,27.2
2019-03-29T03:35:09.000Z,27.2
2019-03-29T03:36:54.000Z,27.2
2019-03-29T03:38:09.000Z,27.2
2019-03-29T03:40:09.000Z,27.3
2019-03-29T03:42:09.000Z,27.3
2019-03-29T03:44:09.000Z,27.3
2019-03-29T03:45:09.000Z,27.3
2019-03-29T03:47:09.000Z,27.4
2019-03-29T03:49:09.000Z,27.4
2019-03-29T03:50:09.000Z,27.4
2019-03-29T03:51:54.000Z,27.4
2019-03-29T03:53:09.000Z,27.4
2019-03-29T03:55:09.000Z,27.5
2019-03-29T03:56:09.000Z,27.5
2019-03-29T03:57:54.000Z,27.5
2019-03-29T03:59:09.000Z,27.4
2019-03-29T04:00:09.000Z,27.4
2019-03-29T04:01:09.000Z,27.4
2019-03-29T04:02:09.000Z,27.5
2019-03-29T04:03:54.000Z,27.5
2019-03-29T04:05:09.000Z,27.5
2019-03-29T04:07:09.000Z,27.5
2019-03-29T04:09:09.000Z,27.5
2019-03-29T04:10:09.000Z,27.5
2019-03-29T04:12:09.000Z,27.5
2019-03-29T04:14:09.000Z,27.5
2019-03-29T04:15:54.000Z,27.5
2019-03-29T04:17:09.000Z,27.4
2019-03-29T04:18:09.000Z,27.4
2019-03-29T04:20:09.000Z,27.4
2019-03-29T04:21:09.000Z,27.4
2019-03-29T04:23:09.000Z,27.4
2019-03-29T04:24:09.000Z,27.5
2019-03-29T04:25:54.000Z,27.5
2019-03-29T04:27:09.000Z,27.5
2019-03-29T04:28:09.000Z,27.5
2019-03-29T04:30:09.000Z,27.5
2019-03-29T04:31:09.000Z,27.5
2019-03-29T04:33:09.000Z,27.5
2019-03-29T04:35:09.000Z,27.4
2019-03-29T04:36:09.000Z,27.3
2019-03-29T04:37:54.000Z,27.4
2019-03-29T04:39:09.000Z,27.4
2019-03-29T04:40:54.000Z,27.3
2019-03-29T04:42:09.000Z,27.2
2019-03-29T04:43:09.000Z,27.2
2019-03-29T04:45:09.000Z,27.2
2019-03-29T04:46:09.000Z,27.2
2019-03-29T04:47:09.000Z,27.3
2019-03-29T04:49:09.000Z,27.4
2019-03-29T04:51:09.000Z,27.3
2019-03-29T04:52:09.000Z,27.4
2019-03-29T04:54:09.000Z,27.3
2019-03-29T04:55:09.000Z,27.3
2019-03-29T04:56:54.000Z,27.4
2019-03-29T04:58:09.000Z,27.4
2019-03-29T05:00:09.000Z,27.4
2019-03-29T05:01:09.000Z,27.4
2019-03-29T05:03:09.000Z,27.4
2019-03-29T05:04:54.000Z,27.5
2019-03-29T05:06:09.000Z,27.4
2019-03-29T05:08:09.000Z,27.4
2019-03-29T05:10:09.000Z,27.4
2019-03-29T05:12:09.000Z,27.3
2019-03-29T05:13:09.000Z,27.3
2019-03-29T05:14:09.000Z,27.3
2019-03-29T05:16:09.000Z,27.4
2019-03-29T05:17:09.000Z,27.4
2019-03-29T05:18:09.000Z,27.5
2019-03-29T05:19:54.000Z,27.1
2019-03-29T05:21:09.000Z,27.5
2019-03-29T05:22:09.000Z,27.5
2019-03-29T05:23:09.000Z,27.5
2019-03-29T05:25:09.000Z,27.6
2019-03-29T05:26:09.000Z,27.6
2019-03-29T05:27:54.000Z,27.5
2019-03-29T05:29:09.000Z,27.5
2019-03-29T05:30:54.000Z,27.5
2019-03-29T05:31:54.000Z,27.4
2019-03-29T05:33:09.000Z,27.4
2019-03-29T05:34:09.000Z,27.4
2019-03-29T05:36:09.000Z,27.5
2019-03-29T05:37:09.000Z,27.5
2019-03-29T05:38:09.000Z,27.5
2019-03-29T05:40:09.000Z,27.5
2019-03-29T05:42:09.000Z,27.5
2019-03-29T05:44:09.000Z,27.5
2019-03-29T05:46:09.000Z,27.5
2019-03-29T05:47:09.000Z,27.5
2019-03-29T05:49:09.000Z,27.5
2019-03-29T05:50:09.000Z,27.5
2019-03-29T05:52:09.000Z,27.4
2019-03-29T05:54:09.000Z,27.4
2019-03-29T05:55:09.000Z,27.4
2019-03-29T05:56:09.000Z,27.5
2019-03-29T05:57:54.000Z,27.5
2019-03-29T05:59:09.000Z,27.5
2019-03-29T06:01:09.000Z,27.5
2019-03-29T06:03:09.000Z,27.5
2019-03-29T06:05:09.000Z,27.5
2019-03-29T06:07:09.000Z,27.5
2019-03-29T06:08:09.000Z,27.5
2019-03-29T06:10:09.000Z,27.6
2019-03-29T06:11:09.000Z,27.6
2019-03-29T06:12:54.000Z,27.7
2019-03-29T06:14:09.000Z,27.7
2019-03-29T06:15:09.000Z,27.8
2019-03-29T06:17:09.000Z,27.8
2019-03-29T06:18:54.000Z,27.8
2019-03-29T06:20:09.000Z,27.8
2019-03-29T06:21:09.000Z,27.8
2019-03-29T06:22:09.000Z,27.9
2019-03-29T06:23:09.000Z,28
2019-03-29T06:25:09.000Z,28.1
2019-03-29T06:27:09.000Z,28.1
2019-03-29T06:28:09.000Z,28.1
2019-03-29T06:29:09.000Z,28.1
2019-03-29T06:30:09.000Z,28.1
2019-03-29T06:32:09.000Z,28.2
2019-03-29T06:34:09.000Z,28.3
2019-03-29T06:36:09.000Z,28.2
2019-03-29T06:38:09.000Z,28.2
2019-03-29T06:39:09.000Z,28.2
2019-03-29T06:40:54.000Z,28.3
2019-03-29T06:42:09.000Z,28.3
2019-03-29T06:43:09.000Z,28.3
2019-03-29T06:45:09.000Z,28.4
2019-03-29T06:47:09.000Z,28.4
2019-03-29T06:49:09.000Z,28.5
2019-03-29T06:50:09.000Z,28.4
2019-03-29T06:52:09.000Z,27.9
2019-03-29T06:54:09.000Z,27.2
2019-03-29T06:56:09.000Z,26.5
2019-03-29T06:57:09.000Z,26.3
2019-03-29T06:59:09.000Z,26.3
2019-03-29T07:00:09.000Z,26.4
2019-03-29T07:01:09.000Z,26.5
2019-03-29T07:03:09.000Z,26.9
2019-03-29T07:05:09.000Z,27.1
2019-03-29T07:06:09.000Z,27.2
2019-03-29T07:07:09.000Z,27.4
2019-03-29T07:09:09.000Z,27.7
2019-03-29T07:10:53.000Z,27.9
2019-03-29T07:12:09.000Z,27.9
2019-03-29T07:13:54.000Z,28
2019-03-29T07:15:09.000Z,28
2019-03-29T07:16:09.000Z,28.1
2019-03-29T07:18:09.000Z,28.3
2019-03-29T07:20:09.000Z,28.5
2019-03-29T07:22:09.000Z,28.6
2019-03-29T07:23:09.000Z,28.6
2019-03-29T07:24:54.000Z,28.7
2019-03-29T07:27:09.000Z,28.8
2019-03-29T07:28:09.000Z,28.8
2019-03-29T07:29:09.000Z,28.9
2019-03-29T07:31:09.000Z,29.1
2019-03-29T07:32:09.000Z,29.2
2019-03-29T07:34:09.000Z,29.4
2019-03-29T07:36:09.000Z,29.5
2019-03-29T07:37:09.000Z,29.5
2019-03-29T07:39:09.000Z,29.5
2019-03-29T07:40:09.000Z,29.5
2019-03-29T07:41:09.000Z,29.6
2019-03-29T07:43:09.000Z,29.7
2019-03-29T07:45:09.000Z,29.7
2019-03-29T07:47:09.000Z,29.5
2019-03-29T07:49:09.000Z,29.4
2019-03-29T07:51:09.000Z,29.2
2019-03-29T07:52:09.000Z,29.1
2019-03-29T07:53:09.000Z,29.1
2019-03-29T07:54:09.000Z,29
2019-03-29T07:56:09.000Z,29
2019-03-29T07:57:09.000Z,29
2019-03-29T07:58:09.000Z,29
2019-03-29T07:59:09.000Z,29
2019-03-29T08:01:09.000Z,28.9
2019-03-29T08:02:54.000Z,28.8
2019-03-29T08:04:09.000Z,28.6
2019-03-29T08:06:08.000Z,28.4
2019-03-29T08:08:08.000Z,28.2
2019-03-29T08:10:08.000Z,27.9
2019-03-29T08:11:53.000Z,27.7
2019-03-29T08:13:08.000Z,27.6
2019-03-29T08:15:08.000Z,27.5
2019-03-29T08:16:08.000Z,27.4
2019-03-29T08:18:08.000Z,27.5
2019-03-29T08:19:53.000Z,27.5
2019-03-29T08:21:08.000Z,27.5
2019-03-29T08:23:08.000Z,27.5
2019-03-29T08:25:08.000Z,27.6
2019-03-29T08:27:08.000Z,27.6
2019-03-29T08:29:08.000Z,27.6
2019-03-29T08:31:08.000Z,27.6
2019-03-29T08:33:08.000Z,27.6
2019-03-29T08:34:08.000Z,27.6
2019-03-29T08:35:08.000Z,27.7
2019-03-29T08:36:08.000Z,27.8
2019-03-29T08:37:08.000Z,27.9
2019-03-29T08:39:08.000Z,28
2019-03-29T08:41:08.000Z,27.9
2019-03-29T08:42:53.000Z,27.8
2019-03-29T08:44:08.000Z,27.8
2019-03-29T08:45:53.000Z,27.7
2019-03-29T08:47:08.000Z,27.6
2019-03-29T08:48:08.000Z,27.6
2019-03-29T08:49:08.000Z,27.6
2019-03-29T08:51:08.000Z,27.8
2019-03-29T08:52:08.000Z,27.8
2019-03-29T08:54:08.000Z,27.9
2019-03-29T08:56:08.000Z,27.8
2019-03-29T08:57:08.000Z,27.8
2019-03-29T08:59:08.000Z,27.9
2019-03-29T09:00:08.000Z,27.9
2019-03-29T09:02:08.000Z,28
2019-03-29T09:03:53.000Z,28
2019-03-29T09:47:41.000Z,27
2019-03-29T09:49:41.000Z,27.3
2019-03-29T09:50:41.000Z,27.5
2019-03-29T09:52:41.000Z,27.9
2019-03-29T09:54:41.000Z,28.1
2019-03-29T09:56:38.000Z,28.2
2019-03-29T09:58:41.000Z,28.2
2019-03-29T09:59:41.000Z,28.1
2019-03-29T10:00:41.000Z,28.1
2019-03-29T10:02:41.000Z,28.2
2019-03-29T10:04:41.000Z,28.3
2019-03-29T10:06:26.000Z,28.5
2019-03-29T10:07:41.000Z,28.6
2019-03-29T10:08:41.000Z,28.7
2019-03-29T10:09:41.000Z,28.8
2019-03-29T10:10:41.000Z,28.9
2019-03-29T10:11:41.000Z,29
2019-03-29T10:13:41.000Z,29.2
2019-03-29T10:14:41.000Z,29.2
2019-03-29T10:16:41.000Z,29.3
2019-03-29T10:17:41.000Z,29.4
2019-03-29T10:19:41.000Z,29.5
2019-03-29T10:20:41.000Z,29.5
2019-03-29T10:21:41.000Z,29.5
2019-03-29T10:23:26.000Z,29.6
2019-03-29T10:24:26.000Z,29.6
2019-03-29T10:25:41.000Z,29.5
2019-03-29T10:27:41.000Z,29.4
2019-03-29T10:29:41.000Z,29.3
2019-03-29T10:31:26.000Z,29.2
2019-03-29T10:32:41.000Z,29
2019-03-29T10:33:41.000Z,29
2019-03-29T10:34:41.000Z,29
2019-03-29T10:36:41.000Z,29
2019-03-29T10:38:41.000Z,29
2019-03-29T10:39:41.000Z,29.1
2019-03-29T10:41:26.000Z,29.2
2019-03-29T10:42:41.000Z,29.2
2019-03-29T10:44:26.000Z,29.3
2019-03-29T10:45:41.000Z,29.3
2019-03-29T10:47:26.000Z,29.3
2019-03-29T10:48:41.000Z,29.2
2019-03-29T10:49:41.000Z,29.2
2019-03-29T10:50:41.000Z,29.2
2019-03-29T10:52:41.000Z,29.4
2019-03-29T10:54:26.000Z,29.4
2019-03-29T10:55:41.000Z,29.3
2019-03-29T10:57:41.000Z,29.2
2019-03-29T10:58:41.000Z,29.2
2019-03-29T11:00:41.000Z,29.2
2019-03-29T11:01:41.000Z,29.2
2019-03-29T11:03:26.000Z,29.2
2019-03-29T11:04:41.000Z,29.2
2019-03-29T11:05:41.000Z,29.2
2019-03-29T11:07:41.000Z,29.3
2019-03-29T11:08:41.000Z,29.4
2019-03-29T11:10:41.000Z,29.4
2019-03-29T11:12:41.000Z,29.4
2019-03-29T11:14:41.000Z,29.4
2019-03-29T11:15:41.000Z,29.4
2019-03-29T11:16:41.000Z,29.5
2019-03-29T11:18:41.000Z,29.6
2019-03-29T11:20:41.000Z,29.5
2019-03-29T11:22:25.000Z,29.6
2019-03-29T11:23:41.000Z,29.6
2019-03-29T11:25:41.000Z,29.6
2019-03-29T11:27:41.000Z,29.6
2019-03-29T11:28:41.000Z,29.6
2019-03-29T11:29:41.000Z,29.6
2019-03-29T11:31:41.000Z,29.6
2019-03-29T11:32:41.000Z,29.6
2019-03-29T11:34:25.000Z,29.6
2019-03-29T11:35:41.000Z,29.6
2019-03-29T11:37:41.000Z,29.6
2019-03-29T11:38:41.000Z,29.6
2019-03-29T11:40:41.000Z,29.6
2019-03-29T11:41:41.000Z,29.6
2019-03-29T11:43:26.000Z,29.7
2019-03-29T11:44:29.000Z,29.6
2019-03-29T11:45:41.000Z,29.6
2019-03-29T11:47:41.000Z,29.6
2019-03-29T11:49:41.000Z,29.6
2019-03-29T11:51:41.000Z,29.5
2019-03-29T11:53:41.000Z,29.6
2019-03-29T11:55:41.000Z,29.6
2019-03-29T11:57:41.000Z,29.6
2019-03-29T11:59:41.000Z,29.6
2019-03-29T12:01:41.000Z,29.5
2019-03-29T12:03:41.000Z,29.4
2019-03-29T12:04:41.000Z,29.4
2019-03-29T12:06:41.000Z,29.4
2019-03-29T12:08:25.000Z,29.4
2019-03-29T12:09:41.000Z,29.4
2019-03-29T12:10:41.000Z,29.4
2019-03-29T12:12:26.000Z,29.5
2019-03-29T12:13:39.000Z,29.4
2019-03-29T12:14:41.000Z,29.4
2019-03-29T12:15:41.000Z,29.3
2019-03-29T12:17:26.000Z,29.3
2019-03-29T12:18:41.000Z,29.3
2019-03-29T12:19:41.000Z,29.3
2019-03-29T12:21:41.000Z,29.2
2019-03-29T12:23:41.000Z,29.1
2019-03-29T12:25:41.000Z,29
2019-03-29T12:26:41.000Z,29
2019-03-29T12:28:41.000Z,29
2019-03-29T12:29:41.000Z,29
2019-03-29T12:31:41.000Z,28.9
2019-03-29T12:32:41.000Z,28.9
2019-03-29T12:33:41.000Z,29
2019-03-29T12:35:41.000Z,28.9
2019-03-29T12:36:41.000Z,28.9
2019-03-29T12:38:41.000Z,28.9
2019-03-29T12:40:41.000Z,29
2019-03-29T12:42:26.000Z,28.9
2019-03-29T12:43:41.000Z,28.8
2019-03-29T12:45:41.000Z,28.8
2019-03-29T12:46:41.000Z,28.8
2019-03-29T12:48:41.000Z,28.9
2019-03-29T12:50:41.000Z,29
2019-03-29T12:52:41.000Z,29
2019-03-29T12:54:41.000Z,29.1
2019-03-29T12:55:41.000Z,29.1
2019-03-29T12:57:41.000Z,29.2
2019-03-29T12:59:41.000Z,29.2
2019-03-29T13:00:41.000Z,29.1
2019-03-29T13:02:41.000Z,29.1
2019-03-29T13:04:41.000Z,29
2019-03-29T13:05:41.000Z,29
2019-03-29T13:07:41.000Z,29
2019-03-29T13:09:26.000Z,29
2019-03-29T13:10:41.000Z,29
2019-03-29T13:12:41.000Z,28.9
2019-03-29T13:13:41.000Z,28.8
2019-03-29T13:15:41.000Z,28.8
2019-03-29T13:17:26.000Z,28.7
2019-03-29T13:18:41.000Z,28.6
2019-03-29T13:19:41.000Z,28.6
2019-03-29T13:20:41.000Z,28.7
2019-03-29T13:22:41.000Z,28.8
2019-03-29T13:24:41.000Z,29
2019-03-29T13:26:25.000Z,29
2019-03-29T13:27:41.000Z,29.1
2019-03-29T13:29:41.000Z,29.2
2019-03-29T13:30:41.000Z,29.3
2019-03-29T13:32:41.000Z,29.4
2019-03-29T13:34:41.000Z,29.6
2019-03-29T13:35:41.000Z,29.7
2019-03-29T13:37:41.000Z,30
2019-03-29T13:39:41.000Z,30.4
2019-03-29T13:40:41.000Z,30.8
2019-03-29T13:42:41.000Z,31.5
2019-03-29T13:43:41.000Z,31.8
2019-03-29T13:45:27.000Z,32.3
2019-03-29T13:46:41.000Z,32.5
2019-03-29T13:47:41.000Z,32.6
2019-03-29T13:49:41.000Z,32.7
2019-03-29T13:50:41.000Z,32.6
2019-03-29T13:52:41.000Z,32.4
2019-03-29T13:53:41.000Z,32.3
2019-03-29T13:54:41.000Z,32.1
2019-03-29T13:56:41.000Z,31.9
2019-03-29T13:58:41.000Z,31.7
2019-03-29T14:00:41.000Z,31.4
2019-03-29T14:01:41.000Z,31.4
2019-03-29T14:02:41.000Z,31.3
2019-03-29T14:04:25.000Z,31.2
2019-03-29T14:05:41.000Z,31.1
2019-03-29T14:06:41.000Z,31
2019-03-29T14:08:41.000Z,30.8
2019-03-29T14:10:41.000Z,30.6
2019-03-29T14:11:41.000Z,30.5
2019-03-29T14:13:41.000Z,30.5
2019-03-29T14:15:41.000Z,30.4
2019-03-29T14:17:26.000Z,30.3
2019-03-29T14:18:41.000Z,30.3
2019-03-29T14:20:41.000Z,30.2
2019-03-29T14:21:41.000Z,30.2
2019-03-29T14:22:41.000Z,30.2
2019-03-29T14:24:41.000Z,30.2
2019-03-29T14:25:41.000Z,30.2
2019-03-29T14:27:41.000Z,30.2
2019-03-29T14:29:41.000Z,30.2
2019-03-29T14:31:41.000Z,30.1
2019-03-29T14:32:41.000Z,30.1
2019-03-29T14:34:26.000Z,30.1
2019-03-29T14:35:41.000Z,30.1
2019-03-29T14:37:41.000Z,30.1
2019-03-29T14:39:41.000Z,30.1
2019-03-29T14:41:41.000Z,30.1
2019-03-29T14:42:41.000Z,30.1
2019-03-29T14:43:41.000Z,30.1
2019-03-29T14:44:41.000Z,30.2
2019-03-29T14:46:41.000Z,30.2
2019-03-29T14:48:41.000Z,30.1
2019-03-29T14:49:41.000Z,30.1
2019-03-29T14:51:41.000Z,30.1
2019-03-29T14:53:41.000Z,30.1
2019-03-29T14:54:41.000Z,30.1
2019-03-29T14:56:41.000Z,30.2
2019-03-29T14:57:41.000Z,30.2
2019-03-29T14:59:41.000Z,30.2
2019-03-29T15:01:41.000Z,30.2
2019-03-29T15:03:41.000Z,30.2
2019-03-29T15:05:41.000Z,30.2
2019-03-29T15:06:41.000Z,30.2
2019-03-29T15:07:41.000Z,30.2
2019-03-29T15:09:41.000Z,30.2
2019-03-29T15:11:41.000Z,30.2
2019-03-29T15:13:41.000Z,30.1
2019-03-29T15:14:41.000Z,30.1
2019-03-29T15:16:41.000Z,30.1
2019-03-29T15:17:41.000Z,30.1
2019-03-29T15:19:26.000Z,30.1
2019-03-29T15:20:41.000Z,30
2019-03-29T15:22:41.000Z,29.9
2019-03-29T15:24:41.000Z,29.8
2019-03-29T15:26:41.000Z,29.8
2019-03-29T15:28:41.000Z,29.9
2019-03-29T15:30:41.000Z,29.9
2019-03-29T15:32:26.000Z,29.8
2019-03-29T15:33:41.000Z,29.8
2019-03-29T15:34:41.000Z,29.8
2019-03-29T15:36:41.000Z,29.8
2019-03-29T15:38:41.000Z,29.9
2019-03-29T15:39:41.000Z,29.9
2019-03-29T15:41:41.000Z,29.9
2019-03-29T15:42:41.000Z,29.9
2019-03-29T15:43:41.000Z,30
2019-03-29T15:45:41.000Z,30
2019-03-29T15:46:41.000Z,30
2019-03-29T15:48:41.000Z,30
2019-03-29T15:49:41.000Z,30
2019-03-29T15:51:41.000Z,29.9
2019-03-29T15:52:41.000Z,29.9
2019-03-29T15:54:41.000Z,29.9
2019-03-29T15:55:41.000Z,29.9
2019-03-29T15:57:41.000Z,29.8
2019-03-29T15:58:41.000Z,29.8
2019-03-29T16:00:41.000Z,29.8
2019-03-29T16:02:41.000Z,29.8
2019-03-29T16:04:41.000Z,29.7
2019-03-29T16:06:41.000Z,29.7
2019-03-29T16:07:41.000Z,29.6
2019-03-29T16:08:41.000Z,29.7
2019-03-29T16:10:41.000Z,29.6
2019-03-29T16:11:41.000Z,29.6
2019-03-29T16:13:41.000Z,29.6
2019-03-29T16:14:41.000Z,29.6
2019-03-29T16:16:41.000Z,29.6
2019-03-29T16:17:41.000Z,29.6
2019-03-29T16:18:41.000Z,29.7
2019-03-29T16:20:41.000Z,29.7
2019-03-29T16:22:41.000Z,29.7
2019-03-29T16:24:41.000Z,29.7
2019-03-29T16:26:41.000Z,29.6
2019-03-29T16:28:41.000Z,29.6
2019-03-29T16:30:41.000Z,29.6
2019-03-29T16:32:26.000Z,29.6
2019-03-29T16:33:41.000Z,29.6
2019-03-29T16:35:42.000Z,29.5
2019-03-29T16:37:42.000Z,29.5
2019-03-29T16:39:42.000Z,29.4
2019-03-29T16:41:42.000Z,29.4
2019-03-29T16:43:42.000Z,29.4
2019-03-29T16:44:42.000Z,29.4
2019-03-29T16:45:42.000Z,29.4
2019-03-29T16:47:42.000Z,29.4
2019-03-29T16:49:42.000Z,29.4
2019-03-29T16:50:42.000Z,29.4
2019-03-29T16:51:42.000Z,29.5
2019-03-29T16:53:41.000Z,29.5
2019-03-29T16:54:42.000Z,29.5
2019-03-29T16:56:42.000Z,29.5
2019-03-29T16:57:42.000Z,29.5
2019-03-29T16:59:42.000Z,29.6
2019-03-29T17:01:42.000Z,29.5
2019-03-29T17:02:42.000Z,29.5
2019-03-29T17:03:42.000Z,29.5
2019-03-29T17:05:42.000Z,29.6
2019-03-29T17:07:26.000Z,29.5
2019-03-29T17:08:42.000Z,29.5
2019-03-29T17:10:26.000Z,29.5
2019-03-29T17:11:42.000Z,29.4
2019-03-29T17:13:42.000Z,29.5
2019-03-29T17:15:42.000Z,29.5
2019-03-29T17:17:41.000Z,29.4
2019-03-29T17:19:41.000Z,29.3
2019-03-29T17:20:42.000Z,29.3
2019-03-29T17:22:42.000Z,29.3
2019-03-29T17:24:42.000Z,29.2
2019-03-29T17:26:42.000Z,29.1
2019-03-29T17:27:42.000Z,29.1
2019-03-29T17:29:42.000Z,29.2
2019-03-29T17:30:42.000Z,29.2
2019-03-29T17:31:42.000Z,29.3
2019-03-29T17:33:42.000Z,29.4
2019-03-29T17:35:26.000Z,29.4
2019-03-29T17:36:42.000Z,29.4
2019-03-29T17:37:42.000Z,29.4
2019-03-29T17:39:41.000Z,29.4
2019-03-29T17:40:41.000Z,29.4
2019-03-29T17:41:41.000Z,29.5
2019-03-29T17:43:41.000Z,29.5
2019-03-29T17:44:41.000Z,29.5
2019-03-29T17:46:41.000Z,29.5
2019-03-29T17:47:41.000Z,29.5
2019-03-29T17:48:41.000Z,29.5
2019-03-29T17:50:41.000Z,29.5
2019-03-29T17:52:41.000Z,29.5
2019-03-29T17:54:41.000Z,29.4
2019-03-29T17:56:41.000Z,29.3
2019-03-29T17:57:41.000Z,29.3
2019-03-29T17:58:41.000Z,29.3
2019-03-29T18:00:41.000Z,29.3
2019-03-29T18:01:41.000Z,29.3
2019-03-29T18:03:41.000Z,29.2
2019-03-29T18:04:41.000Z,29.2
2019-03-29T18:06:41.000Z,29.2
2019-03-29T18:07:41.000Z,29.2
2019-03-29T18:09:41.000Z,29.3
2019-03-29T18:10:41.000Z,29.3
2019-03-29T18:12:41.000Z,29.3
2019-03-29T18:14:41.000Z,29.3
2019-03-29T18:15:41.000Z,29.3
2019-03-29T18:17:26.000Z,29.3
2019-03-29T18:18:41.000Z,29.2
2019-03-29T18:19:41.000Z,29.2
2019-03-29T18:21:41.000Z,29.3
2019-03-29T18:23:41.000Z,29.2
2019-03-29T18:25:41.000Z,29.2
2019-03-29T18:26:41.000Z,29.1
2019-03-29T18:28:41.000Z,29.1
2019-03-29T18:29:41.000Z,29.1
2019-03-29T18:30:41.000Z,29.2
2019-03-29T18:32:41.000Z,29.2
2019-03-29T18:33:41.000Z,29.2
2019-03-29T18:34:41.000Z,29.3
2019-03-29T18:35:41.000Z,29.3
2019-03-29T18:37:41.000Z,29.3
2019-03-29T18:39:41.000Z,29.3
2019-03-29T18:41:41.000Z,29.2
2019-03-29T18:43:41.000Z,29.1
2019-03-29T18:44:41.000Z,29.1
2019-03-29T18:46:41.000Z,29.1
2019-03-29T18:48:41.000Z,29
2019-03-29T18:49:41.000Z,29
2019-03-29T18:50:41.000Z,29
2019-03-29T18:52:41.000Z,29
2019-03-29T18:54:41.000Z,28.9
2019-03-29T18:56:41.000Z,28.9
2019-03-29T18:58:41.000Z,28.9
2019-03-29T19:00:41.000Z,28.9
2019-03-29T19:01:41.000Z,28.9
2019-03-29T19:03:41.000Z,29
2019-03-29T19:05:41.000Z,29
2019-03-29T19:07:41.000Z,29
2019-03-29T19:09:41.000Z,28.9
2019-03-29T19:11:41.000Z,28.9
2019-03-29T19:13:41.000Z,28.9
2019-03-29T19:15:41.000Z,28.9
2019-03-29T19:16:41.000Z,28.9
2019-03-29T19:18:41.000Z,28.9
2019-03-29T19:20:26.000Z,28.8
2019-03-29T19:21:41.000Z,28.7
2019-03-29T19:23:25.000Z,28.6
2019-03-29T19:24:41.000Z,28.6
2019-03-29T19:26:41.000Z,28.6
2019-03-29T19:27:41.000Z,28.7
2019-03-29T19:29:41.000Z,28.7
2019-03-29T19:31:41.000Z,28.7
2019-03-29T19:32:41.000Z,28.7
2019-03-29T19:34:41.000Z,28.8
2019-03-29T19:35:41.000Z,28.8
2019-03-29T19:37:41.000Z,28.8
2019-03-29T19:39:25.000Z,28.9
2019-03-29T19:40:41.000Z,28.8
2019-03-29T19:41:41.000Z,28.8
2019-03-29T19:43:41.000Z,28.9
2019-03-29T19:45:41.000Z,28.9
2019-03-29T19:47:26.000Z,28.9
2019-03-29T19:48:42.000Z,28.9
2019-03-29T19:50:42.000Z,28.9
2019-03-29T19:52:42.000Z,28.9
2019-03-29T19:54:42.000Z,28.8
2019-03-29T19:56:42.000Z,28.7
2019-03-29T19:57:42.000Z,28.7
2019-03-29T19:58:42.000Z,28.7
2019-03-29T19:59:42.000Z,28.8
2019-03-29T20:01:41.000Z,28.8
2019-03-29T20:02:42.000Z,28.8
2019-03-29T20:04:42.000Z,28.9
2019-03-29T20:05:42.000Z,28.9
2019-03-29T20:07:42.000Z,28.9
2019-03-29T20:09:42.000Z,28.9
2019-03-29T20:11:42.000Z,28.8
2019-03-29T20:13:42.000Z,28.8
2019-03-29T20:15:42.000Z,28.8
2019-03-29T20:17:27.000Z,28.8
2019-03-29T20:19:41.000Z,28.6
2019-03-29T20:20:42.000Z,28.5
2019-03-29T20:21:42.000Z,28.5
2019-03-29T20:23:42.000Z,28.6
2019-03-29T20:24:42.000Z,28.7
2019-03-29T20:26:42.000Z,28.7
2019-03-29T20:27:42.000Z,28.7
2019-03-29T20:29:42.000Z,28.7
2019-03-29T20:31:42.000Z,28.7
2019-03-29T20:33:42.000Z,28.7
2019-03-29T20:35:42.000Z,28.7
2019-03-29T20:37:42.000Z,28.7
2019-03-29T20:39:42.000Z,28.7
2019-03-29T20:41:41.000Z,28.6
2019-03-29T20:42:42.000Z,28.6
2019-03-29T20:44:42.000Z,28.6
2019-03-29T20:46:41.000Z,28.5
2019-03-29T20:48:41.000Z,28.5
2019-03-29T20:49:42.000Z,28.5
2019-03-29T20:51:41.000Z,28.5
2019-03-29T20:52:41.000Z,28.6
2019-03-29T20:54:41.000Z,28.7
2019-03-29T20:56:26.000Z,28.7
2019-03-29T20:57:41.000Z,28.6
2019-03-29T20:58:41.000Z,28.6
2019-03-29T20:59:41.000Z,28.6
2019-03-29T21:01:41.000Z,28.7
2019-03-29T21:03:41.000Z,28.7
2019-03-29T21:04:41.000Z,28.7
2019-03-29T21:05:41.000Z,28.7
2019-03-29T21:07:26.000Z,28.8
2019-03-29T21:08:41.000Z,28.8
2019-03-29T21:10:41.000Z,28.8
2019-03-29T21:12:41.000Z,28.6
2019-03-29T21:14:41.000Z,28.6
2019-03-29T21:15:41.000Z,28.5
2019-03-29T21:17:41.000Z,28.5
2019-03-29T21:19:26.000Z,28.5
2019-03-29T21:20:41.000Z,28.4
2019-03-29T21:21:41.000Z,28.4
2019-03-29T21:23:41.000Z,28.5
2019-03-29T21:25:41.000Z,28.5
2019-03-29T21:26:41.000Z,28.5
2019-03-29T21:28:41.000Z,28.6
2019-03-29T21:29:41.000Z,28.6
2019-03-29T21:31:26.000Z,28.7
2019-03-29T21:32:41.000Z,28.6
2019-03-29T21:33:41.000Z,28.6
2019-03-29T21:34:41.000Z,28.7